createdAt,value
2017-08-11T00:01:19.149Z,17.50
2017-08-11T00:03:47.545Z,17.40
2017-08-11T00:06:15.957Z,17.40
2017-08-11T00:08:44.386Z,17.40
2017-08-11T00:11:12.870Z,17.40
2017-08-11T00:13:41.363Z,17.30
2017-08-11T00:16:09.814Z,17.30
2017-08-11T00:18:38.226Z,17.20
2017-08-11T00:21:06.627Z,17.10
2017-08-11T00:23:35.065Z,17.10
2017-08-11T00:26:03.491Z,17.00
2017-08-11T00:28:31.904Z,17.00
2017-08-11T00:31:00.323Z,17.00
2017-08-11T00:33:28.755Z,17.00
2017-08-11T00:35:57.170Z,17.00
2017-08-11T00:38:25.573Z,17.10
2017-08-11T00:40:54.088Z,17.20
2017-08-11T00:43:22.545Z,17.30
2017-08-11T00:45:50.981Z,17.40
2017-08-11T00:48:19.450Z,17.40
2017-08-11T00:50:47.854Z,17.50
2017-08-11T00:53:16.273Z,17.40
2017-08-11T00:55:44.705Z,17.20
2017-08-11T00:58:13.141Z,17.20
2017-08-11T01:00:41.577Z,17.10
2017-08-11T01:03:10.034Z,17.00
2017-08-11T01:05:38.474Z,16.90
2017-08-11T01:08:06.897Z,16.80
2017-08-11T01:10:35.325Z,16.80
2017-08-11T01:13:03.757Z,16.70
2017-08-11T01:15:32.163Z,16.70
2017-08-11T01:18:00.569Z,16.80
2017-08-11T01:20:29.003Z,16.80
2017-08-11T01:22:57.418Z,16.80
2017-08-11T01:25:25.842Z,16.90
2017-08-11T01:27:54.254Z,16.90
2017-08-11T01:30:22.654Z,16.90
2017-08-11T01:32:51.069Z,16.90
2017-08-11T01:35:19.476Z,17.00
2017-08-11T01:37:47.945Z,17.00
2017-08-11T01:40:16.378Z,17.00
2017-08-11T01:42:44.785Z,17.00
2017-08-11T01:45:13.214Z,17.00
2017-08-11T01:47:41.619Z,16.90
2017-08-11T01:50:10.059Z,16.80
2017-08-11T01:52:38.502Z,16.80
2017-08-11T01:55:06.593Z,16.80
2017-08-11T01:57:35.007Z,16.80
2017-08-11T02:00:03.448Z,16.80
2017-08-11T02:02:32.655Z,16.80
2017-08-11T02:05:01.116Z,16.80
2017-08-11T02:07:29.218Z,16.80
2017-08-11T02:09:57.758Z,16.60
2017-08-11T02:12:26.282Z,16.60
2017-08-11T02:14:54.710Z,16.60
2017-08-11T02:17:23.169Z,16.60
2017-08-11T02:19:51.635Z,16.50
2017-08-11T02:22:20.092Z,16.50
2017-08-11T02:24:48.533Z,16.50
2017-08-11T02:27:16.971Z,16.40
2017-08-11T02:29:45.397Z,16.30
2017-08-11T02:32:13.837Z,16.40
2017-08-11T02:34:42.302Z,16.40
2017-08-11T02:37:11.507Z,16.40
2017-08-11T02:39:39.933Z,16.30
2017-08-11T02:42:08.383Z,16.40
2017-08-11T02:44:36.826Z,16.30
2017-08-11T02:47:05.250Z,16.30
2017-08-11T02:49:33.718Z,16.20
2017-08-11T02:52:02.138Z,16.20
2017-08-11T02:54:30.569Z,16.20
2017-08-11T02:56:59.768Z,16.10
2017-08-11T02:59:28.200Z,16.00
2017-08-11T03:01:56.646Z,16.00
2017-08-11T03:04:25.123Z,16.00
2017-08-11T03:06:53.557Z,16.00
2017-08-11T03:09:21.974Z,15.90
2017-08-11T03:11:50.418Z,15.90
2017-08-11T03:14:18.838Z,15.90
2017-08-11T03:16:47.294Z,15.80
2017-08-11T03:19:15.738Z,15.80
2017-08-11T03:21:44.169Z,15.80
2017-08-11T03:24:12.582Z,15.80
2017-08-11T03:26:41.018Z,15.80
2017-08-11T03:29:09.476Z,15.80
2017-08-11T03:31:37.889Z,15.80
2017-08-11T03:34:06.306Z,15.80
2017-08-11T03:36:34.753Z,15.80
2017-08-11T03:39:03.167Z,15.80
2017-08-11T03:41:31.579Z,15.80
2017-08-11T03:44:00.005Z,15.90
2017-08-11T03:46:28.409Z,15.90
2017-08-11T03:48:57.252Z,15.90
2017-08-11T03:51:25.656Z,15.90
2017-08-11T03:53:54.062Z,16.10
2017-08-11T03:56:22.490Z,16.10
2017-08-11T03:58:50.910Z,16.20
2017-08-11T04:01:20.136Z,16.30
2017-08-11T04:03:48.543Z,16.30
2017-08-11T04:06:16.952Z,16.30
2017-08-11T04:08:45.377Z,16.30
2017-08-11T04:11:13.833Z,16.30
2017-08-11T04:13:42.241Z,16.30
2017-08-11T04:16:10.653Z,16.30
2017-08-11T04:18:39.093Z,16.50
2017-08-11T04:21:07.513Z,16.70
2017-08-11T04:23:36.065Z,16.60
2017-08-11T04:26:04.502Z,16.70
2017-08-11T04:28:32.918Z,16.70
2017-08-11T04:31:01.367Z,16.80
2017-08-11T04:33:29.809Z,16.90
2017-08-11T04:35:58.258Z,16.90
2017-08-11T04:38:26.707Z,16.90
2017-08-11T04:40:55.133Z,16.90
2017-08-11T04:43:23.601Z,16.90
2017-08-11T04:45:52.060Z,16.90
2017-08-11T04:48:20.486Z,16.90
2017-08-11T04:50:48.931Z,17.00
2017-08-11T04:53:17.359Z,16.90
2017-08-11T04:55:45.795Z,16.90
2017-08-11T04:58:14.245Z,17.00
2017-08-11T05:00:42.701Z,17.00
2017-08-11T05:03:11.140Z,17.00
2017-08-11T05:05:39.618Z,17.00
2017-08-11T05:08:08.072Z,16.90
2017-08-11T05:10:36.533Z,16.90
2017-08-11T05:13:04.986Z,16.90
2017-08-11T05:15:33.411Z,16.90
2017-08-11T05:18:01.833Z,17.00
2017-08-11T05:20:30.237Z,16.90
2017-08-11T05:22:58.699Z,17.00
2017-08-11T05:25:27.164Z,17.10
2017-08-11T05:27:55.589Z,17.10
2017-08-11T05:30:24.014Z,17.20
2017-08-11T05:32:52.457Z,17.30
2017-08-11T05:35:20.926Z,17.30
2017-08-11T05:37:49.422Z,17.20
2017-08-11T05:40:17.862Z,17.20
2017-08-11T05:42:46.333Z,17.30
2017-08-11T05:45:14.738Z,17.50
2017-08-11T05:47:43.191Z,17.60
2017-08-11T05:50:11.656Z,17.70
2017-08-11T05:52:40.126Z,17.90
2017-08-11T05:55:08.534Z,17.90
2017-08-11T05:57:37.015Z,18.20
2017-08-11T06:00:05.470Z,18.40
2017-08-11T06:02:33.890Z,18.60
2017-08-11T06:05:02.392Z,18.70
2017-08-11T06:07:30.912Z,18.70
2017-08-11T06:09:59.447Z,18.60
2017-08-11T06:12:27.937Z,18.60
2017-08-11T06:14:56.691Z,18.60
2017-08-11T06:17:25.144Z,18.70
2017-08-11T06:19:53.696Z,19.10
2017-08-11T06:22:22.256Z,19.60
2017-08-11T06:24:50.984Z,20.00
2017-08-11T06:27:19.791Z,20.10
2017-08-11T06:29:48.276Z,20.40
2017-08-11T06:32:17.021Z,20.90
2017-08-11T06:34:45.505Z,21.50
2017-08-11T06:37:14.029Z,21.80
2017-08-11T06:39:42.475Z,22.30
2017-08-11T06:42:10.956Z,22.70
2017-08-11T06:44:39.448Z,22.90
2017-08-11T06:47:07.926Z,23.00
2017-08-11T06:49:36.393Z,22.60
2017-08-11T06:52:04.925Z,22.30
2017-08-11T06:54:33.392Z,21.90
2017-08-11T06:57:01.868Z,21.70
2017-08-11T06:59:30.371Z,21.60
2017-08-11T07:01:58.855Z,22.20
2017-08-11T07:04:27.323Z,22.80
2017-08-11T07:06:55.852Z,23.00
2017-08-11T07:09:24.365Z,23.00
2017-08-11T07:11:53.074Z,22.90
2017-08-11T07:14:21.793Z,22.60
2017-08-11T07:16:50.270Z,22.50
2017-08-11T07:19:18.828Z,22.30
2017-08-11T07:21:47.311Z,23.00
2017-08-11T07:24:16.553Z,25.30
2017-08-11T07:26:45.060Z,25.30
2017-08-11T07:29:13.597Z,25.30
2017-08-11T07:31:42.366Z,25.30
2017-08-11T07:34:11.612Z,24.80
2017-08-11T07:36:40.362Z,24.80
2017-08-11T07:39:08.848Z,25.00
2017-08-11T07:41:37.325Z,24.60
2017-08-11T07:44:05.842Z,24.40
2017-08-11T07:46:34.357Z,24.20
2017-08-11T07:49:02.519Z,23.80
2017-08-11T07:51:31.035Z,24.00
2017-08-11T07:53:59.546Z,24.50
2017-08-11T07:56:28.019Z,25.10
2017-08-11T07:58:56.767Z,26.10
2017-08-11T08:01:25.244Z,27.20
2017-08-11T08:03:53.733Z,27.70
2017-08-11T08:06:22.246Z,29.00
2017-08-11T08:08:51.404Z,29.00
2017-08-11T08:11:19.890Z,30.00
2017-08-11T08:13:48.377Z,30.20
2017-08-11T08:16:16.848Z,31.30
2017-08-11T08:18:45.331Z,32.00
2017-08-11T08:21:13.837Z,31.10
2017-08-11T08:23:42.300Z,31.60
2017-08-11T08:26:10.795Z,30.40
2017-08-11T08:28:39.299Z,29.70
2017-08-11T08:31:07.779Z,30.10
2017-08-11T08:33:36.241Z,31.20
2017-08-11T08:36:04.750Z,31.50
2017-08-11T08:38:33.228Z,32.70
2017-08-11T08:41:01.686Z,32.10
2017-08-11T08:43:30.423Z,31.20
2017-08-11T08:45:59.168Z,30.80
2017-08-11T08:48:27.669Z,30.10
2017-08-11T08:50:56.193Z,29.20
2017-08-11T08:53:24.689Z,28.70
2017-08-11T08:55:53.216Z,27.40
2017-08-11T08:58:21.756Z,26.90
2017-08-11T09:00:50.258Z,26.40
2017-08-11T09:03:18.781Z,26.00
2017-08-11T09:05:47.305Z,25.50
2017-08-11T09:08:16.045Z,25.30
2017-08-11T09:10:44.801Z,25.10
2017-08-11T09:13:13.294Z,25.10
2017-08-11T09:15:41.668Z,25.10
2017-08-11T09:18:10.460Z,25.30
2017-08-11T09:20:38.981Z,25.30
2017-08-11T09:23:07.573Z,25.40
2017-08-11T09:25:47.015Z,25.80
2017-08-11T09:28:26.738Z,26.20
2017-08-11T09:31:06.568Z,25.80
2017-08-11T09:33:46.049Z,25.80
2017-08-11T09:36:37.569Z,25.50
2017-08-11T09:39:07.554Z,25.10
2017-08-11T09:41:36.055Z,25.10
2017-08-11T09:44:04.828Z,24.60
2017-08-11T09:46:33.303Z,24.30
2017-08-11T09:49:01.821Z,24.50
2017-08-11T09:51:30.567Z,24.60
2017-08-11T09:53:59.082Z,24.60
2017-08-11T09:56:27.572Z,24.40
2017-08-11T09:58:56.322Z,24.30
2017-08-11T10:01:24.883Z,24.50
2017-08-11T10:03:53.455Z,24.70
2017-08-11T10:06:21.949Z,25.10
2017-08-11T10:08:50.432Z,25.30
2017-08-11T10:11:18.957Z,25.30
2017-08-11T10:13:47.449Z,24.90
2017-08-11T10:16:16.214Z,24.50
2017-08-11T10:18:44.787Z,24.40
2017-08-11T10:21:13.294Z,24.10
2017-08-11T10:23:42.149Z,24.00
2017-08-11T10:26:10.848Z,24.30
2017-08-11T10:28:41.557Z,24.40
2017-08-11T10:31:10.285Z,24.40
2017-08-11T10:33:40.420Z,24.40
2017-08-11T10:36:08.880Z,24.50
2017-08-11T10:38:37.372Z,24.20
2017-08-11T10:41:07.017Z,24.30
2017-08-11T10:43:35.759Z,24.30
2017-08-11T10:46:05.894Z,24.90
2017-08-11T10:48:34.463Z,25.10
2017-08-11T10:51:03.492Z,25.00
2017-08-11T10:53:32.268Z,24.80
2017-08-11T10:56:00.749Z,24.30
2017-08-11T10:58:29.471Z,24.20
2017-08-11T11:00:57.897Z,24.30
2017-08-11T11:03:26.473Z,24.50
2017-08-11T11:05:55.347Z,24.50
2017-08-11T11:08:23.820Z,24.50
2017-08-11T11:10:52.623Z,24.70
2017-08-11T11:13:20.549Z,24.90
2017-08-11T11:15:50.651Z,24.90
2017-08-11T11:18:19.165Z,24.80
2017-08-11T11:23:27.924Z,25.50
2017-08-11T11:31:24.182Z,26.10
2017-08-11T11:33:59.851Z,26.40
2017-08-11T11:36:29.259Z,26.90
2017-08-11T11:38:58.080Z,26.90
2017-08-11T11:41:26.789Z,26.50
2017-08-11T11:43:55.984Z,26.60
2017-08-11T11:46:25.067Z,26.40
2017-08-11T11:48:54.379Z,26.50
2017-08-11T11:51:23.164Z,26.00
2017-08-11T11:53:51.939Z,26.60
2017-08-11T11:58:56.670Z,27.40
2017-08-11T12:01:25.414Z,27.50
2017-08-11T12:03:54.814Z,27.20
2017-08-11T12:06:23.351Z,27.00
2017-08-11T12:08:52.037Z,27.00
2017-08-11T12:11:20.862Z,27.10
2017-08-11T12:13:49.382Z,27.90
2017-08-11T12:16:18.842Z,29.10
2017-08-11T12:18:47.335Z,29.10
2017-08-11T12:21:15.881Z,29.40
2017-08-11T12:23:44.581Z,29.50
2017-08-11T12:26:13.070Z,29.20
2017-08-11T12:28:41.633Z,28.90
2017-08-11T12:31:10.128Z,29.00
2017-08-11T12:33:38.609Z,28.00
2017-08-11T12:36:07.124Z,27.80
2017-08-11T12:38:35.617Z,28.00
2017-08-11T12:41:04.110Z,28.60
2017-08-11T12:43:32.640Z,29.20
2017-08-11T12:46:01.122Z,30.80
2017-08-11T12:48:29.616Z,30.40
2017-08-11T12:50:58.143Z,30.80
2017-08-11T12:53:26.649Z,31.30
2017-08-11T12:55:55.162Z,30.40
2017-08-11T12:58:23.668Z,30.00
2017-08-11T13:00:52.181Z,30.10
2017-08-11T13:03:20.674Z,30.60
2017-08-11T13:05:49.390Z,30.00
2017-08-11T13:08:17.949Z,29.30
2017-08-11T13:10:46.726Z,29.00
2017-08-11T13:13:15.453Z,28.60
2017-08-11T13:15:43.981Z,28.20
2017-08-11T13:18:12.725Z,27.60
2017-08-11T13:20:41.265Z,27.40
2017-08-11T13:23:09.814Z,27.40
2017-08-11T13:25:38.312Z,27.60
2017-08-11T13:28:06.816Z,27.80
2017-08-11T13:30:35.360Z,27.60
2017-08-11T13:33:03.894Z,28.00
2017-08-11T13:35:32.600Z,28.20
2017-08-11T13:38:01.129Z,28.60
2017-08-11T13:40:29.629Z,29.20
2017-08-11T13:42:58.141Z,28.80
2017-08-11T13:45:26.574Z,28.60
2017-08-11T13:47:55.270Z,29.00
2017-08-11T13:50:23.796Z,29.50
2017-08-11T13:52:52.284Z,29.40
2017-08-11T13:55:20.998Z,29.00
2017-08-11T13:57:49.765Z,29.00
2017-08-11T14:00:18.491Z,28.70
2017-08-11T14:02:47.013Z,28.30
2017-08-11T14:05:16.274Z,28.20
2017-08-11T14:07:44.846Z,28.20
2017-08-11T14:10:13.366Z,28.60
2017-08-11T14:12:41.860Z,28.20
2017-08-11T14:15:10.357Z,28.00
2017-08-11T14:17:38.850Z,27.90
2017-08-11T14:20:07.380Z,27.80
2017-08-11T14:22:35.881Z,28.30
2017-08-11T14:25:04.355Z,28.40
2017-08-11T14:27:33.070Z,27.90
2017-08-11T14:30:01.544Z,28.00
2017-08-11T14:32:30.010Z,28.00
2017-08-11T14:34:58.564Z,28.10
2017-08-11T14:37:27.054Z,28.70
2017-08-11T14:39:55.548Z,28.60
2017-08-11T14:42:24.065Z,28.40
2017-08-11T14:44:52.545Z,28.70
2017-08-11T14:47:21.016Z,28.80
2017-08-11T14:49:49.521Z,29.00
2017-08-11T14:52:18.245Z,28.90
2017-08-11T14:54:48.014Z,28.10
2017-08-11T14:57:17.414Z,28.50
2017-08-11T15:03:13.446Z,27.90
2017-08-11T15:05:43.146Z,27.70
2017-08-11T15:08:11.691Z,27.30
2017-08-11T15:10:40.278Z,27.40
2017-08-11T15:13:08.750Z,28.00
2017-08-11T15:15:37.220Z,28.20
2017-08-11T15:18:05.831Z,28.20
2017-08-11T15:20:34.377Z,28.40
2017-08-11T15:23:02.906Z,28.50
2017-08-11T15:25:33.105Z,28.70
2017-08-11T15:28:01.657Z,28.90
2017-08-11T15:30:30.851Z,28.80
2017-08-11T15:32:59.386Z,28.60
2017-08-11T15:35:27.871Z,28.30
2017-08-11T15:37:56.386Z,28.20
2017-08-11T15:40:24.967Z,27.80
2017-08-11T15:42:53.440Z,27.70
2017-08-11T15:45:21.946Z,27.60
2017-08-11T15:47:50.490Z,27.60
2017-08-11T15:50:19.029Z,27.50
2017-08-11T15:52:47.494Z,27.60
2017-08-11T15:55:16.083Z,27.50
2017-08-11T15:57:44.630Z,27.40
2017-08-11T16:00:13.128Z,27.20
2017-08-11T16:02:41.657Z,27.10
2017-08-11T16:05:10.142Z,27.20
2017-08-11T16:07:38.689Z,27.00
2017-08-11T16:10:07.197Z,26.90
2017-08-11T16:12:35.687Z,26.80
2017-08-11T16:15:04.019Z,26.80
2017-08-11T16:17:32.544Z,26.70
2017-08-11T16:20:01.027Z,26.70
2017-08-11T16:22:29.536Z,26.70
2017-08-11T16:24:57.883Z,26.60
2017-08-11T16:27:26.415Z,26.30
2017-08-11T16:29:54.923Z,26.10
2017-08-11T16:32:23.490Z,25.90
2017-08-11T16:34:52.040Z,25.70
2017-08-11T16:37:20.535Z,25.40
2017-08-11T16:39:49.083Z,25.40
2017-08-11T16:42:17.600Z,25.30
2017-08-11T16:44:46.117Z,25.10
2017-08-11T16:47:14.635Z,24.80
2017-08-11T16:49:43.099Z,24.40
2017-08-11T16:52:11.595Z,24.00
2017-08-11T16:54:40.069Z,23.70
2017-08-11T16:57:08.560Z,23.50
2017-08-11T16:59:37.012Z,23.20
2017-08-11T17:02:05.522Z,23.00
2017-08-11T17:04:33.978Z,22.90
2017-08-11T17:07:02.512Z,22.80
2017-08-11T17:09:31.036Z,22.80
2017-08-11T17:11:59.519Z,22.50
2017-08-11T17:14:28.064Z,22.30
2017-08-11T17:16:56.543Z,22.20
2017-08-11T17:19:25.068Z,22.10
2017-08-11T17:21:53.600Z,22.00
2017-08-11T17:24:22.123Z,22.00
2017-08-11T17:26:50.634Z,21.80
2017-08-11T17:29:19.141Z,21.80
2017-08-11T17:31:47.630Z,21.70
2017-08-11T17:34:16.120Z,21.80
2017-08-11T17:36:44.655Z,21.80
2017-08-11T17:39:13.217Z,21.70
2017-08-11T17:41:41.735Z,21.70
2017-08-11T17:44:10.288Z,21.70
2017-08-11T17:46:39.562Z,21.60
2017-08-11T17:49:08.052Z,21.60
2017-08-11T17:51:36.559Z,21.40
2017-08-11T17:54:05.099Z,21.40
2017-08-11T17:56:33.611Z,21.40
2017-08-11T17:59:02.116Z,21.40
2017-08-11T18:01:30.615Z,21.50
2017-08-11T18:03:59.170Z,21.60
2017-08-11T18:06:27.654Z,21.60
2017-08-11T18:08:56.179Z,21.60
2017-08-11T18:11:24.707Z,21.60
2017-08-11T18:13:53.153Z,21.50
2017-08-11T18:16:21.623Z,21.40
2017-08-11T18:18:50.077Z,21.30
2017-08-11T18:21:18.537Z,21.30
2017-08-11T18:23:47.026Z,21.10
2017-08-11T18:26:15.467Z,21.10
2017-08-11T18:28:43.926Z,20.90
2017-08-11T18:31:12.347Z,20.80
2017-08-11T18:33:40.830Z,20.70
2017-08-11T18:36:09.274Z,20.50
2017-08-11T18:38:37.720Z,20.40
2017-08-11T18:41:06.165Z,20.30
2017-08-11T18:43:34.609Z,20.20
2017-08-11T18:46:03.122Z,20.20
2017-08-11T18:48:31.612Z,20.20
2017-08-11T18:51:00.077Z,20.10
2017-08-11T18:53:28.513Z,20.10
2017-08-11T18:55:57.021Z,20.00
2017-08-11T18:58:25.433Z,20.10
2017-08-11T19:00:53.842Z,20.10
2017-08-11T19:03:22.309Z,20.00
2017-08-11T19:05:50.757Z,19.90
2017-08-11T19:08:19.231Z,19.80
2017-08-11T19:10:47.773Z,19.70
2017-08-11T19:13:50.579Z,19.60
2017-08-11T19:16:19.043Z,19.40
2017-08-11T19:21:28.183Z,19.00
2017-08-11T19:23:56.643Z,18.80
2017-08-11T19:26:25.230Z,18.70
2017-08-11T19:28:53.720Z,18.50
2017-08-11T19:31:22.163Z,18.40
2017-08-11T19:33:50.641Z,18.30
2017-08-11T19:36:19.133Z,18.40
2017-08-11T19:38:47.671Z,18.30
2017-08-11T19:41:16.227Z,18.20
2017-08-11T19:43:44.685Z,18.10
2017-08-11T19:46:13.151Z,18.00
2017-08-11T19:48:41.863Z,17.90
2017-08-11T19:51:10.365Z,17.80
2017-08-11T19:53:39.198Z,17.70
2017-08-11T19:56:08.496Z,17.70
2017-08-11T19:58:37.012Z,17.50
2017-08-11T20:01:10.178Z,17.50
2017-08-11T20:03:38.947Z,17.40
2017-08-11T20:06:08.498Z,17.40
2017-08-11T20:08:37.018Z,17.40
2017-08-11T20:11:05.848Z,17.40
2017-08-11T20:13:34.349Z,17.30
2017-08-11T20:16:02.887Z,17.30
2017-08-11T20:18:31.386Z,17.60
2017-08-11T20:20:59.874Z,18.00
2017-08-11T20:23:28.385Z,18.20
2017-08-11T20:25:56.902Z,18.40
2017-08-11T20:28:25.494Z,18.40
2017-08-11T20:30:54.038Z,18.50
2017-08-11T20:33:25.055Z,18.50
2017-08-11T20:35:53.635Z,18.50
2017-08-11T20:38:22.845Z,18.60
2017-08-11T20:40:52.515Z,18.60
2017-08-11T20:43:23.587Z,18.60
2017-08-11T20:46:07.074Z,18.60
2017-08-11T20:48:35.603Z,18.50
2017-08-11T20:51:04.107Z,18.50
2017-08-11T20:53:32.561Z,18.40
2017-08-11T20:56:01.018Z,18.40
2017-08-11T20:58:29.487Z,18.30
2017-08-11T21:00:57.990Z,18.20
2017-08-11T21:03:26.728Z,18.20
2017-08-11T21:05:55.374Z,18.30
2017-08-11T21:08:23.783Z,18.30
2017-08-11T21:13:28.826Z,18.30
2017-08-11T21:16:15.189Z,18.30
2017-08-11T21:24:58.824Z,18.20
2017-08-11T21:27:27.395Z,18.20
2017-08-11T21:30:22.971Z,18.20
2017-08-11T21:32:53.255Z,18.20
2017-08-11T21:35:21.807Z,18.20
2017-08-11T21:37:50.297Z,18.10
2017-08-11T21:40:18.818Z,18.20
2017-08-11T21:42:48.230Z,18.10
2017-08-11T21:45:16.801Z,18.10
2017-08-11T21:47:45.369Z,18.00
2017-08-11T21:50:20.725Z,18.00
2017-08-11T21:52:49.261Z,17.90
2017-08-11T21:55:26.809Z,17.80
2017-08-11T21:57:55.428Z,17.80
2017-08-11T22:00:24.030Z,17.80
2017-08-11T22:02:57.018Z,17.80
2017-08-11T22:05:30.543Z,17.80
2017-08-11T22:10:59.317Z,17.70
2017-08-11T22:13:28.460Z,17.80
2017-08-11T22:15:58.248Z,17.80
2017-08-11T22:18:38.343Z,17.80
2017-08-11T22:21:06.874Z,17.70
2017-08-11T22:23:36.938Z,17.70
2017-08-11T22:26:05.774Z,17.60
2017-08-11T22:28:35.454Z,17.60
2017-08-11T22:31:04.010Z,17.50
2017-08-11T22:36:10.707Z,17.60
2017-08-11T22:38:42.891Z,17.50
2017-08-11T22:41:12.303Z,17.50
2017-08-11T22:43:40.841Z,17.50
2017-08-11T22:46:09.340Z,17.50
2017-08-11T22:48:39.361Z,17.60
2017-08-11T22:53:54.458Z,17.50
2017-08-11T22:56:27.554Z,17.50
2017-08-11T22:58:56.214Z,17.50
2017-08-11T23:01:29.430Z,17.40
2017-08-11T23:04:14.349Z,17.40
2017-08-11T23:06:45.539Z,17.40
2017-08-11T23:12:31.736Z,17.40
2017-08-11T23:15:01.814Z,17.50
2017-08-11T23:17:33.347Z,17.40
2017-08-11T23:20:03.781Z,17.40
2017-08-11T23:22:32.409Z,17.40
2017-08-11T23:25:00.913Z,17.30
2017-08-11T23:27:30.218Z,17.30
2017-08-11T23:29:59.694Z,17.30
2017-08-11T23:32:29.719Z,17.30
2017-08-11T23:34:59.103Z,17.20
2017-08-11T23:37:30.686Z,17.10
2017-08-11T23:39:59.416Z,17.20
2017-08-11T23:47:40.667Z,17.10
2017-08-11T23:50:13.298Z,17.10
2017-08-11T23:52:45.678Z,17.10
2017-08-11T23:55:18.158Z,17.10
2017-08-11T23:57:46.741Z,17.00
